Time;durP1;ratioP1;P1;durP2;ratioP2;P2;SDS_P1;SDS_P2;PMS_P1;PMS_P2;Temp;Humidity;BMP_temperature;BMP_pressure;BME280_temperature;BME280_humidity;BME280_pressure;Samples;Min_cycle;Max_cycle;Signal;HPM_P1;HPM_P2
2023/03/19 11:38:03;;;;;;;32.97;29.77;;;15.10;99.90;;;;;;5107273;27;20754;-72
2023/03/19 11:40:42;;;;;;;30.25;27.40;;;15.90;99.90;;;;;;5095923;28;20099;-72
2023/03/19 11:43:35;;;;;;;29.25;26.20;;;16.00;99.90;;;;;;5097590;28;20024;-72
2023/03/19 11:46:26;;;;;;;27.40;24.67;;;16.10;99.90;;;;;;5089636;28;20435;-72
2023/03/19 11:48:57;;;;;;;29.88;25.38;;;16.10;99.90;;;;;;5087803;28;20039;-72
2023/03/19 11:51:48;;;;;;;32.15;26.45;;;16.00;99.90;;;;;;5098383;28;20046;-72
2023/03/19 11:54:33;;;;;;;32.60;26.83;;;15.90;99.90;;;;;;5091549;28;20024;-72
2023/03/19 11:57:03;;;;;;;35.10;29.80;;;15.90;99.90;;;;;;5092922;28;20028;-72
2023/03/19 11:59:45;;;;;;;29.02;25.60;;;15.70;99.90;;;;;;5097252;28;20019;-72
2023/03/19 12:02:30;;;;;;;31.50;25.38;;;15.60;99.90;;;;;;5093017;28;20355;-72
2023/03/19 12:05:04;;;;;;;;;;;15.40;99.90;;;;;;5093856;28;20476;-72
2023/03/19 12:07:35;;;;;;;33.85;23.50;;;15.30;99.90;;;;;;5095911;28;20315;-72
2023/03/19 12:10:26;;;;;;;29.70;23.20;;;15.00;99.90;;;;;;5083233;28;20028;-72
2023/03/19 12:13:29;;;;;;;27.08;22.48;;;15.00;99.90;;;;;;5080807;28;20075;-72
2023/03/19 12:16:37;;;;;;;27.48;21.15;;;14.90;99.90;;;;;;5087138;28;20063;-72
2023/03/19 12:19:18;;;;;;;33.40;22.77;;;14.90;99.90;;;;;;5025656;28;20064;-72
2023/03/19 12:21:52;;;;;;;27.50;21.40;;;14.90;99.90;;;;;;5027040;28;20072;-72
2023/03/19 12:24:36;;;;;;;32.33;21.58;;;15.00;99.90;;;;;;5025451;28;20057;-72
2023/03/19 12:27:17;;;;;;;27.67;20.75;;;15.00;99.90;;;;;;5020867;28;20029;-72
2023/03/19 12:29:55;;;;;;;27.95;21.17;;;14.90;99.90;;;;;;5025404;28;20077;-72
2023/03/19 12:32:42;;;;;;;31.92;20.15;;;14.80;99.90;;;;;;5033377;28;20109;-72
2023/03/19 12:35:24;;;;;;;25.80;18.92;;;14.80;99.90;;;;;;5038619;28;20730;-72
2023/03/19 12:38:04;;;;;;;27.90;20.67;;;14.70;99.90;;;;;;5012784;28;20142;-72
2023/03/19 12:40:39;;;;;;;26.48;20.98;;;14.70;99.90;;;;;;5029044;28;20034;-73
2023/03/19 12:43:17;;;;;;;28.63;18.67;;;14.50;99.90;;;;;;5011572;28;20087;-73
2023/03/19 12:45:58;;;;;;;28.05;19.40;;;14.60;99.90;;;;;;5012526;28;20120;-73
2023/03/19 12:48:45;;;;;;;30.55;21.70;;;14.60;99.90;;;;;;5001600;28;20502;-73
2023/03/19 12:51:16;;;;;;;31.67;22.20;;;14.60;99.90;;;;;;5005710;28;20026;-73
2023/03/19 12:53:47;;;;;;;28.83;19.35;;;14.60;99.90;;;;;;5011811;28;20108;-73
2023/03/19 12:56:22;;;;;;;31.48;20.55;;;14.60;99.90;;;;;;5067846;28;20479;-74
2023/03/19 12:59:23;;;;;;;27.40;20.08;;;14.60;99.90;;;;;;5075027;28;20032;-72
2023/03/19 13:01:58;;;;;;;29.67;19.40;;;14.70;99.90;;;;;;5075439;28;20043;-73
2023/03/19 13:04:29;;;;;;;27.08;18.80;;;14.80;99.90;;;;;;5085029;28;20500;-73
2023/03/19 13:07:03;;;;;;;28.88;20.27;;;14.80;99.90;;;;;;5083984;28;20058;-73
2023/03/19 13:10:00;;;;;;;27.45;20.40;;;14.90;99.90;;;;;;5087268;28;20016;-72
2023/03/19 13:12:30;;;;;;;30.67;20.55;;;15.10;99.90;;;;;;5075032;28;20035;-72
2023/03/19 13:15:00;;;;;;;30.45;21.05;;;15.20;99.90;;;;;;5053184;28;20052;-73
2023/03/19 13:17:42;;;;;;;27.83;18.80;;;15.20;99.90;;;;;;5067373;28;20090;-72
2023/03/19 13:20:16;;;;;;;26.75;18.25;;;15.20;99.90;;;;;;5053037;28;20043;-72
2023/03/19 13:22:50;;;;;;;23.08;17.98;;;15.20;99.90;;;;;;5052354;28;20083;-72
2023/03/19 13:25:20;;;;;;;28.73;18.75;;;15.10;99.90;;;;;;5065095;28;20020;-73
2023/03/19 13:27:55;;;;;;;25.00;16.73;;;15.20;99.90;;;;;;5051934;28;20425;-73
2023/03/19 13:30:22;;;;;;;30.83;20.70;;;15.20;99.90;;;;;;5058585;28;20100;-73
2023/03/19 13:32:53;;;;;;;25.48;19.05;;;15.20;99.90;;;;;;5071301;28;20384;-72
2023/03/19 13:35:35;;;;;;;20.90;18.55;;;15.10;99.90;;;;;;5070873;28;20029;-72
2023/03/19 13:38:08;;;;;;;25.55;18.50;;;15.20;99.90;;;;;;5055899;28;20429;-73
2023/03/19 13:40:41;;;;;;;26.02;18.83;;;15.10;99.90;;;;;;5091310;28;20024;-72
2023/03/19 13:43:20;;;;;;;24.75;17.67;;;15.10;99.90;;;;;;5089565;28;20019;-73
2023/03/19 13:45:51;;;;;;;19.05;15.45;;;15.20;99.90;;;;;;5080127;28;20029;-72
2023/03/19 13:48:26;;;;;;;22.00;15.50;;;15.10;99.90;;;;;;5073478;28;20025;-72
2023/03/19 13:51:04;;;;;;;21.52;15.75;;;15.20;99.90;;;;;;5062872;28;20021;-72
2023/03/19 13:53:31;;;;;;;17.83;14.63;;;15.20;99.90;;;;;;5068503;28;20473;-73
2023/03/19 13:56:03;;;;;;;21.77;15.45;;;15.20;99.90;;;;;;5064128;28;20126;-73
2023/03/19 13:58:48;;;;;;;20.95;14.63;;;15.20;99.90;;;;;;5065441;28;20020;-73
2023/03/19 14:01:26;;;;;;;18.35;13.57;;;15.30;99.90;;;;;;5070882;28;20024;-73
2023/03/19 14:04:02;;;;;;;17.15;11.50;;;15.20;99.90;;;;;;5063720;28;20021;-73
2023/03/19 14:06:41;;;;;;;14.98;12.40;;;15.30;99.90;;;;;;5061893;28;20537;-73
2023/03/19 14:09:42;;;;;;;19.75;12.63;;;15.30;99.90;;;;;;5081803;28;20022;-73
2023/03/19 14:12:39;;;;;;;19.63;13.00;;;15.20;99.90;;;;;;5072753;28;20017;-73
2023/03/19 14:15:08;;;;;;;14.95;11.00;;;15.20;99.90;;;;;;5078426;28;20036;-73
2023/03/19 14:17:46;;;;;;;15.70;11.52;;;15.20;99.90;;;;;;5087974;28;20105;-73
2023/03/19 14:20:12;;;;;;;17.55;12.77;;;15.20;99.90;;;;;;5087480;28;20021;-72
2023/03/19 14:23:08;;;;;;;15.68;13.35;;;15.20;99.90;;;;;;5088005;28;20022;-73
2023/03/19 14:25:56;;;;;;;20.50;13.93;;;15.30;99.90;;;;;;5064170;28;20031;-73
2023/03/19 14:28:51;;;;;;;15.32;12.55;;;15.30;99.90;;;;;;5083461;28;20016;-72
2023/03/19 14:31:23;;;;;;;18.92;12.57;;;15.40;99.90;;;;;;5073938;28;20142;-73
2023/03/19 14:33:51;;;;;;;17.63;13.25;;;15.40;99.90;;;;;;5090626;28;20020;-73
2023/03/19 14:36:20;;;;;;;19.20;13.25;;;15.40;99.90;;;;;;5085652;28;20048;-73
2023/03/19 14:38:51;;;;;;;16.80;12.77;;;15.40;99.90;;;;;;5067985;28;20119;-73
2023/03/19 14:41:20;;;;;;;15.65;12.02;;;15.30;99.90;;;;;;5090039;28;20710;-71
2023/03/19 14:44:17;;;;;;;20.55;13.38;;;15.30;99.90;;;;;;5090567;28;20107;-71
2023/03/19 14:47:04;;;;;;;20.40;13.77;;;15.40;99.90;;;;;;5069466;28;20081;-71
2023/03/19 14:49:41;;;;;;;19.33;14.52;;;15.30;99.90;;;;;;5070587;28;20461;-70
2023/03/19 14:52:13;;;;;;;25.08;16.23;;;15.40;99.90;;;;;;5074381;28;20052;-71
2023/03/19 14:54:52;;;;;;;20.45;16.25;;;15.40;99.90;;;;;;5075771;28;20032;-71
2023/03/19 14:57:25;;;;;;;22.83;16.88;;;15.40;99.90;;;;;;5066970;28;20036;-74
2023/03/19 15:02:32;;;;;;;21.95;16.05;;;15.30;99.90;;;;;;5062497;28;20442;-72
2023/03/19 15:04:59;;;;;;;21.85;14.95;;;15.30;99.90;;;;;;5052670;28;20029;-72
2023/03/19 15:07:37;;;;;;;20.20;16.20;;;15.20;99.90;;;;;;5051538;28;20044;-73
2023/03/19 15:10:04;;;;;;;22.23;15.88;;;15.20;99.90;;;;;;5058276;28;20025;-73
2023/03/19 15:13:17;;;;;;;20.30;17.98;;;15.20;99.90;;;;;;5064556;28;20019;-73
2023/03/19 15:16:21;;;;;;;23.20;17.52;;;15.20;99.90;;;;;;5010006;28;20038;-73
2023/03/19 15:18:48;;;;;;;21.67;16.77;;;15.10;99.90;;;;;;4984799;28;20117;-73
2023/03/19 15:21:14;;;;;;;29.75;18.58;;;15.10;99.90;;;;;;5007431;28;20049;-74
2023/03/19 15:23:44;;;;;;;20.73;16.60;;;15.20;99.90;;;;;;5011171;28;20018;-73
2023/03/19 15:26:10;;;;;;;23.30;16.80;;;15.20;99.90;;;;;;5017526;28;20455;-73
2023/03/19 15:28:50;;;;;;;21.73;16.20;;;15.20;99.90;;;;;;4997342;28;20793;-73
2023/03/19 15:31:17;;;;;;;23.65;16.98;;;15.20;99.90;;;;;;5002645;28;20442;-74
2023/03/19 15:33:44;;;;;;;24.63;17.92;;;15.20;99.90;;;;;;5007925;28;22055;-74
2023/03/19 15:36:28;;;;;;;23.55;17.80;;;15.00;99.90;;;;;;5008996;28;20030;-74
2023/03/19 15:38:59;;;;;;;27.73;18.25;;;15.00;99.90;;;;;;5012669;28;20045;-73
2023/03/19 15:41:28;;;;;;;19.23;15.65;;;14.90;99.90;;;;;;5012923;28;20034;-74
2023/03/19 15:43:55;;;;;;;21.50;16.58;;;15.00;99.90;;;;;;5016880;28;20034;-73
2023/03/19 15:46:25;;;;;;;22.15;15.63;;;15.00;99.90;;;;;;5011909;28;20084;-74
2023/03/19 15:48:54;;;;;;;20.85;16.25;;;15.00;99.90;;;;;;5009412;28;20415;-73
2023/03/19 15:51:22;;;;;;;22.38;15.85;;;15.00;99.90;;;;;;5044289;28;20029;-73
2023/03/19 15:53:48;;;;;;;22.85;17.13;;;14.90;99.90;;;;;;5042732;28;20040;-73
2023/03/19 15:56:16;;;;;;;19.65;16.05;;;14.90;99.90;;;;;;5056239;28;20066;-74
2023/03/19 15:58:46;;;;;;;19.35;15.30;;;15.00;99.90;;;;;;5050668;28;20024;-73
2023/03/19 16:01:14;;;;;;;17.73;14.98;;;15.00;99.90;;;;;;5053922;28;20179;-73
2023/03/19 16:03:43;;;;;;;18.60;13.88;;;15.10;99.90;;;;;;5051224;28;20033;-73
2023/03/19 16:06:18;;;;;;;16.85;13.48;;;15.20;99.90;;;;;;5048907;28;20036;-73
2023/03/19 16:08:48;;;;;;;16.38;11.93;;;15.20;99.90;;;;;;5048391;28;20524;-76
2023/03/19 16:11:34;;;;;;;15.20;11.75;;;15.20;99.90;;;;;;5045546;28;20509;-75
2023/03/19 16:14:08;;;;;;;16.23;12.27;;;15.20;99.90;;;;;;5033790;28;20383;-74
2023/03/19 16:16:34;;;;;;;16.05;13.27;;;15.20;99.90;;;;;;5033924;28;20101;-74
2023/03/19 16:19:00;;;;;;;19.00;13.70;;;15.10;99.90;;;;;;5036794;28;20478;-75
2023/03/19 16:21:39;;;;;;;13.85;11.90;;;15.00;99.90;;;;;;5033056;28;20063;-75
2023/03/19 16:24:07;;;;;;;21.10;13.30;;;15.00;99.90;;;;;;5035370;28;20505;-75
2023/03/19 16:26:37;;;;;;;16.63;12.13;;;15.00;99.90;;;;;;5028921;28;20025;-74
2023/03/19 16:29:22;;;;;;;15.68;12.25;;;14.90;99.90;;;;;;5036304;28;20392;-74
2023/03/19 16:31:51;;;;;;;17.10;13.20;;;14.90;99.90;;;;;;5045792;28;20026;-74
2023/03/19 16:34:34;;;;;;;15.88;11.70;;;14.90;99.90;;;;;;5044405;28;20377;-74
2023/03/19 16:37:02;;;;;;;16.73;12.90;;;15.00;99.90;;;;;;5044641;28;20033;-75
2023/03/19 16:39:35;;;;;;;14.77;11.35;;;15.00;99.90;;;;;;5032342;28;20502;-74
2023/03/19 16:42:07;;;;;;;15.77;11.63;;;15.30;99.90;;;;;;5030404;28;20025;-75
2023/03/19 16:44:32;;;;;;;16.08;12.00;;;15.40;99.90;;;;;;5032749;28;20102;-74
2023/03/19 16:46:58;;;;;;;12.50;10.68;;;15.50;99.90;;;;;;5032306;28;20065;-75
2023/03/19 16:49:23;;;;;;;14.35;12.07;;;15.50;99.90;;;;;;5020140;28;20462;-75
2023/03/19 16:51:49;;;;;;;15.32;11.48;;;15.40;99.90;;;;;;5032928;28;20378;-75
2023/03/19 16:54:16;;;;;;;15.43;12.98;;;15.20;99.90;;;;;;5033914;28;20484;-74
2023/03/19 16:56:41;;;;;;;17.55;14.35;;;15.10;99.90;;;;;;5032938;28;20053;-75
2023/03/19 16:59:16;;;;;;;20.70;14.90;;;14.90;99.90;;;;;;5034828;28;20056;-75
2023/03/19 17:01:41;;;;;;;17.10;14.32;;;14.70;99.90;;;;;;5036659;28;20542;-74
2023/03/19 17:04:16;;;;;;;21.60;15.70;;;14.60;99.90;;;;;;5041216;28;20112;-75
2023/03/19 17:06:42;;;;;;;21.65;15.68;;;14.50;99.90;;;;;;5029416;28;20025;-74
2023/03/19 17:09:08;;;;;;;19.27;16.25;;;14.40;99.90;;;;;;5036446;28;20040;-74
2023/03/19 17:11:36;;;;;;;22.08;18.88;;;14.30;99.90;;;;;;5038200;28;20104;-74
2023/03/19 17:14:05;;;;;;;22.02;17.63;;;14.20;99.90;;;;;;5031145;28;20033;-74
2023/03/19 17:16:31;;;;;;;26.92;18.17;;;14.10;99.90;;;;;;5017245;28;20034;-74
2023/03/19 17:18:57;;;;;;;21.95;17.77;;;14.00;99.90;;;;;;5043284;28;20023;-73
2023/03/19 17:21:26;;;;;;;23.50;18.98;;;13.90;99.90;;;;;;5042435;28;20043;-74
2023/03/19 17:23:52;;;;;;;24.27;19.58;;;13.80;99.90;;;;;;5047942;28;20124;-74
2023/03/19 17:26:26;;;;;;;26.70;21.63;;;13.70;99.90;;;;;;5035649;28;20036;-74
2023/03/19 17:28:53;;;;;;;26.65;20.63;;;13.60;99.90;;;;;;5020264;28;20105;-74
2023/03/19 17:31:32;;;;;;;26.45;19.70;;;13.60;99.90;;;;;;5046274;28;20470;-75
2023/03/19 17:34:18;;;;;;;21.02;17.63;;;13.60;99.90;;;;;;5031423;28;20013;-75
2023/03/19 17:36:55;;;;;;;16.80;15.10;;;13.60;99.90;;;;;;5030055;28;20043;-80
2023/03/19 17:39:22;;;;;;;17.73;15.85;;;13.50;99.90;;;;;;5031582;28;20104;-79
2023/03/19 17:41:48;;;;;;;17.92;15.75;;;13.50;99.90;;;;;;5031709;28;20033;-79
2023/03/19 17:44:14;;;;;;;19.20;15.20;;;13.50;99.90;;;;;;5030375;28;20048;-81
2023/03/19 17:46:54;;;;;;;17.10;15.00;;;13.40;99.90;;;;;;5029874;28;20056;-80
2023/03/19 17:49:21;;;;;;;15.38;13.88;;;13.30;99.90;;;;;;5030299;28;20024;-81
2023/03/19 17:51:47;;;;;;;16.90;15.07;;;13.20;99.90;;;;;;5038410;28;20025;-79
2023/03/19 17:54:13;;;;;;;16.35;14.75;;;13.00;99.90;;;;;;5032753;28;20037;-79
2023/03/19 17:56:42;;;;;;;19.33;16.45;;;13.00;99.90;;;;;;5029526;28;20025;-79
2023/03/19 17:59:10;;;;;;;20.40;16.35;;;12.90;99.90;;;;;;5028594;28;20067;-79
2023/03/19 18:01:37;;;;;;;25.00;19.23;;;12.80;99.90;;;;;;5029086;28;20439;-79
2023/03/19 18:04:03;;;;;;;19.85;16.80;;;12.70;99.90;;;;;;5029164;28;20040;-80
2023/03/19 18:06:33;;;;;;;22.45;18.83;;;12.60;99.90;;;;;;5029227;28;20037;-79
2023/03/19 18:08:59;;;;;;;23.38;18.25;;;12.50;99.90;;;;;;5030848;28;20396;-80
2023/03/19 18:11:25;;;;;;;35.10;24.02;;;12.40;99.90;;;;;;5032669;28;20095;-79
2023/03/19 18:13:51;;;;;;;27.30;22.00;;;12.30;99.90;;;;;;5044249;28;20021;-79
2023/03/19 18:16:23;;;;;;;35.63;24.98;;;12.30;99.90;;;;;;5034573;28;20029;-79
2023/03/19 18:18:49;;;;;;;37.15;27.63;;;12.20;99.90;;;;;;5027676;28;20502;-79
2023/03/19 18:21:15;;;;;;;38.67;27.10;;;12.20;99.90;;;;;;5032541;28;20026;-78
2023/03/19 18:23:42;;;;;;;38.28;24.95;;;12.10;99.90;;;;;;5032507;28;20394;-79
2023/03/19 18:26:08;;;;;;;35.72;24.33;;;12.10;99.90;;;;;;5020872;28;20021;-79
2023/03/19 18:28:34;;;;;;;41.85;28.40;;;12.10;99.90;;;;;;5034324;28;20028;-79
2023/03/19 18:31:00;;;;;;;43.65;28.05;;;12.00;99.90;;;;;;5040537;28;20033;-79
2023/03/19 18:33:29;;;;;;;43.30;28.23;;;12.00;99.90;;;;;;5050070;28;20029;-79
2023/03/19 18:35:56;;;;;;;37.45;27.73;;;12.10;99.90;;;;;;5044763;28;20051;-79
2023/03/19 18:38:24;;;;;;;41.72;28.17;;;12.00;99.90;;;;;;5036774;28;20025;-78
2023/03/19 18:40:51;;;;;;;44.72;28.25;;;12.10;99.90;;;;;;5047438;28;20025;-74
2023/03/19 18:43:17;;;;;;;41.95;26.42;;;12.00;99.90;;;;;;5045744;28;20029;-75
2023/03/19 18:45:45;;;;;;;47.72;29.25;;;12.00;99.90;;;;;;5046807;28;20037;-74
2023/03/19 18:48:26;;;;;;;39.50;28.48;;;11.90;99.90;;;;;;5045835;28;20470;-74
2023/03/19 18:50:53;;;;;;;40.90;27.20;;;11.90;99.90;;;;;;5044133;28;20025;-75
2023/03/19 18:53:19;;;;;;;39.78;29.35;;;11.80;99.90;;;;;;5045216;28;20021;-75
2023/03/19 18:55:46;;;;;;;41.47;26.85;;;11.80;99.90;;;;;;5041488;28;20148;-75
2023/03/19 18:58:19;;;;;;;42.03;29.70;;;11.70;99.90;;;;;;5045628;28;20035;-75
2023/03/19 19:00:45;;;;;;;45.08;27.48;;;11.70;99.90;;;;;;5036436;28;20045;-75
2023/03/19 19:03:14;;;;;;;39.22;28.85;;;11.70;99.90;;;;;;5056213;28;20044;-74
2023/03/19 19:05:40;;;;;;;40.42;29.90;;;11.60;99.90;;;;;;5034826;28;20029;-75
2023/03/19 19:08:17;;;;;;;39.67;27.08;;;11.60;99.90;;;;;;5032796;28;20038;-75
2023/03/19 19:10:47;;;;;;;45.30;30.52;;;11.50;99.90;;;;;;5034356;28;20021;-75
2023/03/19 19:13:20;;;;;;;46.00;29.63;;;11.50;99.90;;;;;;5028339;28;20026;-75
2023/03/19 19:15:46;;;;;;;41.13;27.67;;;11.40;99.90;;;;;;5030944;28;20021;-75
2023/03/19 19:18:18;;;;;;;44.08;27.85;;;11.40;99.90;;;;;;5028826;28;20256;-75
2023/03/19 19:20:45;;;;;;;38.80;27.95;;;11.40;99.90;;;;;;5029460;28;20075;-75
2023/03/19 19:23:12;;;;;;;40.88;29.52;;;11.30;99.90;;;;;;5030238;28;20101;-75
2023/03/19 19:25:38;;;;;;;44.63;29.95;;;11.30;99.90;;;;;;5017180;28;20022;-75
2023/03/19 19:28:21;;;;;;;40.70;28.15;;;11.30;99.90;;;;;;5028521;28;20482;-75
2023/03/19 19:30:47;;;;;;;36.85;26.60;;;11.30;99.90;;;;;;5038801;28;20032;-75
2023/03/19 19:33:18;;;;;;;43.03;27.92;;;11.30;99.90;;;;;;5050498;28;20024;-75
2023/03/19 19:35:44;;;;;;;36.83;28.15;;;11.20;99.90;;;;;;5032621;28;20091;-75
2023/03/19 19:38:09;;;;;;;41.42;29.83;;;11.10;99.90;;;;;;5029899;28;20021;-75
2023/03/19 19:40:35;;;;;;;38.50;27.23;;;11.00;99.90;;;;;;5029136;28;20029;-76
2023/03/19 19:43:01;;;;;;;47.05;32.10;;;11.00;99.90;;;;;;5032303;28;20040;-75
2023/03/19 19:45:37;;;;;;;44.97;31.90;;;10.90;99.90;;;;;;5037385;28;20123;-75
2023/03/19 19:48:08;;;;;;;48.88;33.88;;;10.90;99.90;;;;;;5043510;28;20117;-75
2023/03/19 19:50:34;;;;;;;42.38;30.15;;;10.80;99.90;;;;;;5051331;28;20056;-75
2023/03/19 19:53:00;;;;;;;41.58;28.85;;;10.80;99.90;;;;;;5052136;28;20437;-75
2023/03/19 19:55:25;;;;;;;38.95;29.50;;;10.80;99.90;;;;;;5051715;28;20049;-75
2023/03/19 19:57:53;;;;;;;40.85;27.23;;;10.80;99.90;;;;;;5052086;28;20378;-76
2023/03/19 20:00:25;;;;;;;42.03;27.27;;;10.90;99.90;;;;;;5043510;28;20061;-75
2023/03/19 20:02:52;;;;;;;49.72;30.98;;;10.90;99.90;;;;;;5036155;28;20021;-75
2023/03/19 20:05:21;;;;;;;43.05;28.08;;;10.90;99.90;;;;;;5041219;28;20041;-75
2023/03/19 20:07:48;;;;;;;40.88;26.45;;;11.00;99.90;;;;;;5040987;28;20055;-76
2023/03/19 20:10:14;;;;;;;35.20;24.42;;;11.00;99.90;;;;;;5042820;28;20021;-75
2023/03/19 20:12:41;;;;;;;37.20;23.70;;;11.10;99.90;;;;;;5047332;28;20478;-75
2023/03/19 20:15:22;;;;;;;33.78;20.98;;;11.10;99.90;;;;;;5043674;28;20026;-75
2023/03/19 20:17:48;;;;;;;33.15;22.38;;;11.20;99.90;;;;;;5044787;28;21359;-75
2023/03/19 20:20:16;;;;;;;28.08;19.98;;;11.20;99.90;;;;;;5045573;28;20029;-75
2023/03/19 20:22:42;;;;;;;25.55;18.85;;;11.20;99.90;;;;;;5044569;28;20035;-75
2023/03/19 20:25:08;;;;;;;31.92;21.80;;;11.20;99.90;;;;;;5044498;28;20025;-75
2023/03/19 20:27:34;;;;;;;29.95;20.35;;;11.20;99.90;;;;;;5043211;28;20029;-76
2023/03/19 20:30:00;;;;;;;27.77;19.23;;;11.20;99.90;;;;;;5045792;28;20478;-76
2023/03/19 20:32:32;;;;;;;28.10;20.40;;;11.20;99.90;;;;;;5042173;28;20025;-76
2023/03/19 20:34:59;;;;;;;28.85;20.15;;;11.20;99.90;;;;;;5038949;28;20587;-75
2023/03/19 20:37:26;;;;;;;27.10;18.90;;;11.20;99.90;;;;;;5034072;28;20048;-76
2023/03/19 20:39:51;;;;;;;23.92;18.25;;;11.20;99.90;;;;;;5032130;28;20502;-76
2023/03/19 20:42:17;;;;;;;21.77;16.65;;;11.20;99.90;;;;;;5043376;28;20039;-76
2023/03/19 20:44:45;;;;;;;29.13;19.17;;;11.20;99.90;;;;;;5051581;28;20059;-75
2023/03/19 20:47:20;;;;;;;29.83;18.35;;;11.10;99.90;;;;;;5052378;28;20028;-76
2023/03/19 20:49:48;;;;;;;20.52;15.50;;;11.10;99.90;;;;;;5051634;28;20067;-76
2023/03/19 20:52:15;;;;;;;23.30;16.30;;;11.10;99.90;;;;;;5039349;28;20561;-76
2023/03/19 20:54:41;;;;;;;26.50;17.83;;;11.00;99.90;;;;;;5032018;28;20518;-76
2023/03/19 20:57:12;;;;;;;28.75;19.92;;;10.90;99.90;;;;;;5044942;28;20053;-76
2023/03/19 20:59:38;;;;;;;26.52;17.20;;;10.90;99.90;;;;;;5051658;28;20017;-76
2023/03/19 21:02:14;;;;;;;25.05;18.15;;;10.90;99.90;;;;;;5049342;28;20494;-76
2023/03/19 21:04:39;;;;;;;27.67;19.00;;;10.90;99.90;;;;;;5040707;28;20021;-76
2023/03/19 21:07:34;;;;;;;27.52;17.90;;;10.80;99.90;;;;;;5031696;28;20022;-76
2023/03/19 21:10:02;;;;;;;26.95;18.65;;;10.90;99.90;;;;;;5029984;28;20038;-76
2023/03/19 21:12:30;;;;;;;31.35;19.20;;;10.90;99.90;;;;;;5030835;28;20584;-76
2023/03/19 21:14:57;;;;;;;27.13;19.35;;;10.90;99.90;;;;;;5032086;28;20053;-76
2023/03/19 21:17:24;;;;;;;26.35;18.08;;;10.90;99.90;;;;;;5031404;28;20128;-76
2023/03/19 21:19:49;;;;;;;27.42;17.70;;;11.00;99.90;;;;;;5031684;28;20108;-76
2023/03/19 21:22:21;;;;;;;30.90;20.55;;;11.00;99.90;;;;;;5030364;28;20112;-76
2023/03/19 21:24:47;;;;;;;30.55;20.73;;;10.90;99.90;;;;;;5043865;28;20017;-76
2023/03/19 21:27:20;;;;;;;32.92;20.05;;;10.90;99.90;;;;;;5046750;28;20362;-76
2023/03/19 21:29:46;;;;;;;31.38;20.33;;;11.00;99.90;;;;;;5036514;28;20029;-76
2023/03/19 21:32:18;;;;;;;31.50;19.42;;;11.00;99.90;;;;;;5041913;28;20409;-76
2023/03/19 21:34:45;;;;;;;28.15;19.90;;;11.00;99.90;;;;;;5033881;28;20029;-76
2023/03/19 21:37:11;;;;;;;30.13;20.95;;;11.00;99.90;;;;;;5050898;28;20079;-76
2023/03/19 21:39:37;;;;;;;30.42;19.92;;;11.00;99.90;;;;;;5035351;28;20433;-76
2023/03/19 21:42:06;;;;;;;29.58;20.13;;;11.00;99.90;;;;;;5029790;28;20033;-76
2023/03/19 21:44:32;;;;;;;25.35;17.08;;;11.00;99.90;;;;;;5034040;28;20343;-76
2023/03/19 21:46:58;;;;;;;25.85;18.48;;;11.00;99.90;;;;;;5039997;28;20028;-76
2023/03/19 21:49:24;;;;;;;25.05;16.85;;;11.00;99.90;;;;;;5032834;28;20067;-76
2023/03/19 21:51:49;;;;;;;25.00;15.77;;;10.90;99.90;;;;;;5041674;28;20478;-76
2023/03/19 21:54:15;;;;;;;24.33;15.75;;;10.80;99.90;;;;;;5047155;28;20098;-76
2023/03/19 21:56:43;;;;;;;19.58;14.10;;;10.80;99.90;;;;;;5050732;28;20103;-76
2023/03/19 21:59:16;;;;;;;26.27;16.17;;;10.80;99.90;;;;;;5048858;28;20537;-76
2023/03/19 22:01:42;;;;;;;20.27;14.38;;;10.70;99.90;;;;;;5049759;28;20689;-76
2023/03/19 22:04:08;;;;;;;23.67;14.70;;;10.70;99.90;;;;;;5050692;28;20119;-76
2023/03/19 22:06:33;;;;;;;25.10;15.02;;;10.70;99.90;;;;;;5050960;28;20032;-76
2023/03/19 22:08:59;;;;;;;18.48;13.10;;;10.70;99.90;;;;;;5046252;28;20040;-76
2023/03/19 22:11:30;;;;;;;18.00;13.30;;;10.70;99.90;;;;;;5041290;28;20535;-76
2023/03/19 22:14:06;;;;;;;20.13;13.85;;;10.70;99.90;;;;;;5049685;28;20021;-76
2023/03/19 22:16:32;;;;;;;23.05;14.90;;;10.70;99.90;;;;;;5042027;28;20026;-76
2023/03/19 22:18:58;;;;;;;21.55;15.15;;;10.70;99.90;;;;;;5049559;28;20071;-76
2023/03/19 22:21:24;;;;;;;23.15;14.30;;;10.60;99.90;;;;;;5049884;28;20486;-76
2023/03/19 22:23:50;;;;;;;20.58;14.23;;;10.60;99.90;;;;;;5049934;28;20017;-76
2023/03/19 22:26:34;;;;;;;22.42;14.52;;;10.60;99.90;;;;;;5049158;28;20820;-76
2023/03/19 22:29:03;;;;;;;23.17;15.57;;;10.60;99.90;;;;;;5059921;28;20025;-76
2023/03/19 22:31:29;;;;;;;20.10;13.93;;;10.50;99.90;;;;;;5047726;28;20531;-76
2023/03/19 22:33:54;;;;;;;20.58;14.65;;;10.50;99.90;;;;;;5029027;28;20021;-76
2023/03/19 22:36:20;;;;;;;28.33;15.97;;;10.60;99.90;;;;;;5030763;28;20220;-76
2023/03/19 22:38:47;;;;;;;26.52;16.75;;;10.50;99.90;;;;;;5030860;28;20470;-76
2023/03/19 22:41:35;;;;;;;28.70;17.17;;;10.50;99.90;;;;;;5029811;28;20033;-76
2023/03/19 22:44:03;;;;;;;29.90;17.65;;;10.50;99.90;;;;;;5030107;28;20044;-76
2023/03/19 22:46:29;;;;;;;39.55;19.85;;;10.50;99.90;;;;;;5030522;28;20479;-76
2023/03/19 22:48:55;;;;;;;35.15;19.20;;;10.50;99.90;;;;;;5029481;28;20032;-76
2023/03/19 22:51:23;;;;;;;43.35;23.63;;;10.50;99.90;;;;;;5031870;28;20022;-76
2023/03/19 22:53:49;;;;;;;35.95;21.98;;;10.50;99.90;;;;;;5029611;28;20075;-76
2023/03/19 22:56:16;;;;;;;39.95;22.05;;;10.40;99.90;;;;;;5031177;28;20030;-76
2023/03/19 22:58:42;;;;;;;44.97;20.77;;;10.40;99.90;;;;;;5030346;28;20041;-76
2023/03/19 23:01:20;;;;;;;33.53;21.20;;;10.40;99.90;;;;;;5030013;28;20160;-76
2023/03/19 23:03:46;;;;;;;30.15;17.92;;;10.40;99.90;;;;;;5030585;28;20029;-76
2023/03/19 23:06:16;;;;;;;30.98;20.27;;;10.40;99.90;;;;;;5029076;28;20445;-76
2023/03/19 23:08:42;;;;;;;33.10;19.45;;;10.30;99.90;;;;;;5030459;28;20482;-76
2023/03/19 23:11:07;;;;;;;35.85;21.95;;;10.30;99.90;;;;;;5030385;28;20069;-76
2023/03/19 23:13:34;;;;;;;32.20;17.80;;;10.30;99.90;;;;;;5030697;28;20466;-77
2023/03/19 23:16:00;;;;;;;31.38;19.33;;;10.30;99.90;;;;;;5028937;28;20065;-76
2023/03/19 23:18:35;;;;;;;34.53;19.52;;;10.30;99.90;;;;;;5029727;28;20033;-77
2023/03/19 23:21:02;;;;;;;28.65;17.55;;;10.30;99.90;;;;;;5030528;28;20672;-76
2023/03/19 23:23:28;;;;;;;31.08;18.42;;;10.30;99.90;;;;;;5033863;28;20474;-76
2023/03/19 23:25:54;;;;;;;31.88;18.55;;;10.30;99.90;;;;;;5034343;28;20029;-77
2023/03/19 23:28:28;;;;;;;32.35;17.58;;;10.30;99.90;;;;;;5033150;28;20370;-74
2023/03/19 23:30:54;;;;;;;;;;;10.30;99.90;;;;;;5043899;28;20057;-75
2023/03/19 23:33:20;;;;;;;29.35;16.63;;;10.30;99.90;;;;;;5053209;28;19951;-74
2023/03/19 23:35:47;;;;;;;29.93;18.53;;;10.30;99.90;;;;;;5053549;28;20430;-74
2023/03/19 23:38:13;;;;;;;32.30;18.07;;;10.20;99.90;;;;;;5053110;28;20044;-75
2023/03/19 23:40:40;;;;;;;28.20;18.10;;;10.30;99.90;;;;;;5053194;28;20064;-74
2023/03/19 23:43:19;;;;;;;29.90;18.45;;;10.30;99.90;;;;;;5046740;28;20028;-75
2023/03/19 23:45:45;;;;;;;32.60;18.23;;;10.30;99.90;;;;;;5046415;28;20017;-75
2023/03/19 23:48:37;;;;;;;27.17;16.93;;;10.40;99.90;;;;;;5040518;28;20115;-75
2023/03/19 23:51:03;;;;;;;34.13;16.95;;;10.40;99.90;;;;;;5034419;28;20029;-74
2023/03/19 23:53:29;;;;;;;30.60;15.43;;;10.30;99.90;;;;;;5052165;28;20028;-75
2023/03/19 23:56:13;;;;;;;28.88;15.73;;;10.30;99.90;;;;;;5049715;28;20100;-74
2023/03/19 23:58:43;;;;;;;25.20;15.18;;;10.30;99.90;;;;;;5050852;28;20474;-74
